Time;durP1;ratioP1;P1;durP2;ratioP2;P2;SDS_P1;SDS_P2;PMS_P1;PMS_P2;Temp;Humidity;BMP_temperature;BMP_pressure;BME280_temperature;BME280_humidity;BME280_pressure;Samples;Min_cycle;Max_cycle;Signal;HPM_P1;HPM_P2
2022/11/30 00:00:51;;;;;;;27.33;16.57;;;7.40;42.30;;;;;;5039952;28;20897;-64
2022/11/30 00:03:17;;;;;;;29.27;16.30;;;7.40;42.40;;;;;;5044180;28;20463;-64
2022/11/30 00:05:44;;;;;;;30.33;16.73;;;7.40;42.40;;;;;;5041621;28;20950;-64
2022/11/30 00:08:11;;;;;;;30.93;17.70;;;7.40;42.40;;;;;;5049098;28;20949;-64
2022/11/30 00:10:38;;;;;;;31.27;17.30;;;7.40;42.50;;;;;;5048507;28;20477;-64
2022/11/30 00:13:05;;;;;;;32.93;18.97;;;7.40;42.50;;;;;;5040871;28;20541;-64
2022/11/30 00:15:32;;;;;;;29.73;16.33;;;7.40;42.50;;;;;;5033900;28;20861;-64
2022/11/30 00:18:01;;;;;;;30.47;18.43;;;7.30;42.50;;;;;;5050454;28;20895;-64
2022/11/30 00:20:28;;;;;;;30.30;17.40;;;7.30;42.50;;;;;;5044392;28;20478;-64
2022/11/30 00:22:55;;;;;;;30.73;17.43;;;7.30;42.20;;;;;;5046174;28;20458;-64
2022/11/30 00:25:22;;;;;;;31.63;18.17;;;7.30;42.20;;;;;;5042231;28;20453;-64
2022/11/30 00:27:49;;;;;;;33.93;19.53;;;7.30;42.20;;;;;;5044046;28;20450;-63
2022/11/30 00:30:16;;;;;;;35.23;19.63;;;7.20;42.20;;;;;;5040366;28;20494;-63
2022/11/30 00:32:43;;;;;;;36.03;18.70;;;7.20;42.20;;;;;;5046086;28;20940;-63
2022/11/30 00:35:11;;;;;;;33.07;19.80;;;7.20;42.10;;;;;;5044766;28;20457;-64
2022/11/30 00:37:38;;;;;;;34.60;20.63;;;7.20;42.30;;;;;;5045129;28;20483;-64
2022/11/30 00:40:06;;;;;;;34.43;19.50;;;7.10;42.00;;;;;;5046467;28;20474;-64
2022/11/30 00:42:33;;;;;;;34.13;19.00;;;7.10;42.10;;;;;;5039658;28;20461;-64
2022/11/30 00:44:59;;;;;;;32.37;18.87;;;7.10;41.90;;;;;;5039489;28;20560;-64
2022/11/30 00:47:26;;;;;;;30.10;17.77;;;7.10;42.00;;;;;;5042883;28;20489;-64
2022/11/30 00:49:53;;;;;;;32.63;19.83;;;7.00;41.90;;;;;;5038999;28;20478;-64
2022/11/30 00:52:21;;;;;;;31.47;18.93;;;7.00;42.20;;;;;;5051330;28;20467;-64
2022/11/30 00:54:48;;;;;;;30.97;19.80;;;7.00;42.10;;;;;;5038878;28;20492;-63
2022/11/30 00:57:15;;;;;;;33.93;19.90;;;7.00;41.90;;;;;;5048360;28;20474;-64
2022/11/30 00:59:41;;;;;;;34.20;20.00;;;7.00;41.90;;;;;;5042570;28;20478;-64
2022/11/30 01:02:08;;;;;;;34.80;18.97;;;6.90;42.00;;;;;;5038920;28;20473;-64
2022/11/30 01:04:35;;;;;;;33.70;20.47;;;6.80;42.10;;;;;;5035356;28;20459;-64
2022/11/30 01:07:02;;;;;;;34.47;18.40;;;6.80;42.20;;;;;;5049925;28;20457;-64
2022/11/30 01:09:30;;;;;;;33.97;20.77;;;6.80;42.30;;;;;;5038656;28;20475;-64
2022/11/30 01:11:56;;;;;;;32.13;21.17;;;6.80;42.40;;;;;;5039472;28;20469;-65
2022/11/30 01:14:23;;;;;;;34.07;21.17;;;6.80;42.30;;;;;;5044442;28;20468;-65
2022/11/30 01:16:50;;;;;;;34.17;18.63;;;6.70;42.30;;;;;;5050228;28;21005;-64
2022/11/30 01:19:17;;;;;;;34.60;21.30;;;6.70;42.50;;;;;;5043884;28;20482;-64
2022/11/30 01:21:43;;;;;;;35.80;20.20;;;6.70;42.50;;;;;;5042454;28;20579;-64
2022/11/30 01:24:10;;;;;;;29.43;17.77;;;6.70;42.50;;;;;;5047012;28;20457;-65
2022/11/30 01:26:39;;;;;;;38.43;20.70;;;6.60;42.20;;;;;;5038698;28;20466;-64
2022/11/30 01:29:05;;;;;;;34.00;20.17;;;6.60;42.00;;;;;;5041380;28;20471;-64
2022/11/30 01:31:32;;;;;;;34.83;20.93;;;6.60;41.70;;;;;;5041255;28;21119;-64
2022/11/30 01:34:00;;;;;;;32.83;19.50;;;6.50;41.70;;;;;;5043522;28;20454;-63
2022/11/30 01:36:27;;;;;;;28.80;17.97;;;6.60;41.40;;;;;;5044166;28;20461;-63
2022/11/30 01:38:56;;;;;;;32.10;19.77;;;6.50;41.40;;;;;;5046461;28;21026;-63
2022/11/30 01:41:25;;;;;;;33.53;19.13;;;6.50;41.50;;;;;;5049107;28;20453;-62
2022/11/30 01:43:55;;;;;;;35.60;21.20;;;6.40;41.60;;;;;;5040722;28;20462;-63
2022/11/30 01:46:29;;;;;;;36.73;21.57;;;6.40;41.80;;;;;;5038294;28;20455;-63
2022/11/30 01:49:06;;;;;;;36.00;20.93;;;6.30;42.00;;;;;;5038148;28;20520;-63
2022/11/30 01:51:36;;;;;;;34.47;21.50;;;6.30;41.80;;;;;;5042379;28;20930;-63
2022/11/30 01:54:06;;;;;;;36.13;20.80;;;6.20;41.70;;;;;;5045023;28;20461;-63
2022/11/30 01:56:33;;;;;;;37.47;22.63;;;6.20;41.90;;;;;;5039599;28;20455;-63
2022/11/30 01:59:01;;;;;;;36.43;20.63;;;6.20;41.90;;;;;;5048174;28;20489;-63
2022/11/30 02:01:28;;;;;;;35.33;21.13;;;6.20;42.00;;;;;;5040601;28;20480;-64
2022/11/30 02:04:01;;;;;;;38.20;22.47;;;6.30;41.90;;;;;;5037565;28;20482;-64
2022/11/30 02:06:29;;;;;;;41.43;23.40;;;6.20;41.90;;;;;;5045514;28;20467;-64
2022/11/30 02:08:56;;;;;;;32.13;19.70;;;6.30;41.80;;;;;;5049714;28;20459;-64
2022/11/30 02:11:26;;;;;;;35.47;20.73;;;6.30;41.70;;;;;;5051542;28;20464;-64
2022/11/30 02:14:05;;;;;;;36.33;21.90;;;6.30;41.70;;;;;;5042665;28;20569;-64
2022/11/30 02:16:41;;;;;;;33.13;20.37;;;6.20;41.50;;;;;;5040124;28;20465;-64
2022/11/30 02:19:44;;;;;;;38.33;21.33;;;6.20;41.50;;;;;;5050581;28;20487;-64
2022/11/30 02:22:24;;;;;;;34.87;21.23;;;6.20;41.50;;;;;;5036457;28;20461;-64
2022/11/30 02:24:57;;;;;;;43.33;23.07;;;6.20;41.70;;;;;;5043732;28;20469;-64
2022/11/30 02:27:37;;;;;;;39.40;23.60;;;6.20;41.80;;;;;;5039365;28;20458;-64
2022/11/30 02:30:09;;;;;;;37.20;21.90;;;6.20;41.90;;;;;;5034409;28;20489;-63
2022/11/30 02:32:42;;;;;;;39.20;22.50;;;6.20;41.90;;;;;;5036225;28;20485;-63
2022/11/30 02:35:10;;;;;;;36.13;21.70;;;6.20;41.90;;;;;;5044269;28;20493;-64
2022/11/30 02:37:38;;;;;;;35.00;22.00;;;6.20;41.90;;;;;;5043063;28;21007;-64
2022/11/30 02:40:08;;;;;;;38.63;23.40;;;6.20;41.90;;;;;;5049190;28;20473;-63
2022/11/30 02:42:35;;;;;;;38.70;21.07;;;6.30;41.90;;;;;;5038535;28;20462;-64
2022/11/30 02:45:02;;;;;;;42.30;21.80;;;6.30;41.80;;;;;;5038973;28;20519;-64
2022/11/30 02:47:36;;;;;;;42.40;23.37;;;6.30;41.70;;;;;;5037518;28;20976;-64
2022/11/30 02:50:11;;;;;;;38.77;21.87;;;6.50;41.80;;;;;;5052868;28;20488;-64
2022/11/30 02:52:38;;;;;;;37.77;22.30;;;6.30;41.50;;;;;;5040920;28;20469;-64
2022/11/30 02:55:07;;;;;;;37.37;22.20;;;6.40;41.30;;;;;;5043963;28;20453;-64
2022/11/30 02:57:34;;;;;;;41.57;23.17;;;6.40;41.30;;;;;;5039015;28;20479;-65
2022/11/30 03:00:05;;;;;;;37.00;21.57;;;6.40;41.20;;;;;;5046222;28;20469;-65
2022/11/30 03:02:33;;;;;;;41.33;24.33;;;6.40;41.10;;;;;;5037116;28;20527;-64
2022/11/30 03:05:00;;;;;;;40.07;23.10;;;6.40;41.10;;;;;;5043724;28;20469;-65
2022/11/30 03:07:27;;;;;;;34.63;21.30;;;6.40;41.10;;;;;;5039716;28;20958;-65
2022/11/30 03:09:54;;;;;;;39.20;23.17;;;6.40;40.70;;;;;;5037233;28;20478;-64
2022/11/30 03:12:21;;;;;;;34.07;20.63;;;6.40;40.70;;;;;;5051264;28;20470;-65
2022/11/30 03:14:48;;;;;;;38.87;23.37;;;6.40;40.60;;;;;;5041836;28;20493;-64
2022/11/30 03:17:14;;;;;;;36.43;21.57;;;6.40;40.30;;;;;;5035272;28;20458;-64
2022/11/30 03:19:43;;;;;;;38.20;21.77;;;6.40;40.20;;;;;;5038868;28;20517;-64
2022/11/30 03:22:09;;;;;;;33.63;18.93;;;6.40;40.40;;;;;;5042219;28;20489;-64
2022/11/30 03:24:36;;;;;;;38.00;21.73;;;6.30;40.40;;;;;;5038738;28;20458;-65
2022/11/30 03:27:03;;;;;;;41.03;23.87;;;6.30;40.50;;;;;;5043730;28;20465;-65
2022/11/30 03:29:30;;;;;;;37.17;21.93;;;6.30;40.60;;;;;;5040278;28;20490;-65
2022/11/30 03:31:57;;;;;;;37.13;20.57;;;6.30;40.80;;;;;;5042478;28;20470;-65
2022/11/30 03:34:25;;;;;;;34.57;20.97;;;6.30;40.90;;;;;;5037648;28;20488;-64
2022/11/30 03:36:53;;;;;;;38.10;20.57;;;6.30;40.90;;;;;;5038442;28;20926;-64
2022/11/30 03:39:20;;;;;;;36.87;21.03;;;6.30;40.90;;;;;;5037080;28;20715;-65
2022/11/30 03:41:47;;;;;;;40.27;22.67;;;6.30;41.00;;;;;;5045670;28;20485;-65
2022/11/30 03:44:14;;;;;;;38.20;23.20;;;6.30;40.90;;;;;;5045222;28;20459;-64
2022/11/30 03:46:40;;;;;;;38.50;22.83;;;6.30;40.90;;;;;;5046448;28;20456;-64
2022/11/30 03:49:07;;;;;;;42.53;22.60;;;6.30;41.00;;;;;;5047092;28;21011;-64
2022/11/30 03:51:34;;;;;;;39.97;23.33;;;6.40;40.90;;;;;;5052083;28;20457;-64
2022/11/30 03:54:02;;;;;;;40.50;24.50;;;6.30;40.90;;;;;;5039754;28;20466;-65
2022/11/30 03:56:29;;;;;;;39.80;23.30;;;6.30;41.00;;;;;;5048578;28;20471;-65
2022/11/30 03:58:56;;;;;;;39.40;23.17;;;6.30;40.90;;;;;;5046196;28;20947;-65
2022/11/30 04:01:23;;;;;;;39.10;23.60;;;6.30;41.00;;;;;;5048526;28;21002;-64
2022/11/30 04:03:50;;;;;;;45.17;25.90;;;6.30;41.00;;;;;;5047489;28;20473;-65
2022/11/30 04:06:18;;;;;;;44.00;26.47;;;6.30;41.00;;;;;;5043142;28;20466;-65
2022/11/30 04:08:45;;;;;;;43.67;26.30;;;6.30;41.10;;;;;;5036851;28;20462;-65
2022/11/30 04:11:14;;;;;;;44.90;26.70;;;6.30;41.10;;;;;;5044682;28;20469;-64
2022/11/30 04:13:41;;;;;;;40.70;24.00;;;6.40;41.10;;;;;;5039130;28;20462;-65
2022/11/30 04:16:08;;;;;;;42.60;24.73;;;6.40;41.10;;;;;;5040148;28;20458;-64
2022/11/30 04:18:38;;;;;;;47.77;27.20;;;6.40;41.10;;;;;;5037994;28;20649;-64
2022/11/30 04:21:06;;;;;;;41.13;25.57;;;6.40;41.10;;;;;;5046897;28;20480;-64
2022/11/30 04:23:35;;;;;;;45.80;25.60;;;6.40;41.10;;;;;;5046533;28;21877;-65
2022/11/30 04:26:03;;;;;;;49.47;27.00;;;6.40;41.10;;;;;;5042326;28;20468;-65
2022/11/30 04:28:31;;;;;;;46.60;25.67;;;6.40;41.10;;;;;;5050939;28;20974;-64
2022/11/30 04:30:59;;;;;;;41.63;25.20;;;6.40;41.20;;;;;;5040176;28;20474;-64
2022/11/30 04:33:26;;;;;;;44.73;25.77;;;6.40;41.10;;;;;;5039710;28;20461;-65
2022/11/30 04:35:56;;;;;;;51.83;26.63;;;6.40;41.10;;;;;;5052097;28;20468;-64
2022/11/30 04:38:24;;;;;;;48.57;28.43;;;6.40;41.10;;;;;;5037724;28;20463;-65
2022/11/30 04:40:51;;;;;;;47.63;27.27;;;6.40;41.10;;;;;;5045031;28;20486;-64
2022/11/30 04:43:18;;;;;;;45.97;26.70;;;6.40;41.00;;;;;;5046916;28;20496;-64
2022/11/30 04:45:47;;;;;;;46.30;26.20;;;6.30;41.00;;;;;;5043819;28;20464;-65
2022/11/30 04:48:15;;;;;;;45.23;26.33;;;6.30;41.00;;;;;;5046968;28;20460;-64
2022/11/30 04:50:41;;;;;;;44.83;26.27;;;6.20;40.90;;;;;;5040809;28;20616;-64
2022/11/30 04:53:09;;;;;;;44.90;26.07;;;6.20;41.00;;;;;;5043054;28;20458;-64
2022/11/30 04:55:37;;;;;;;48.53;27.43;;;6.20;41.10;;;;;;5047049;28;20459;-64
2022/11/30 04:58:03;;;;;;;50.77;28.10;;;6.20;41.10;;;;;;5045449;28;20484;-65
2022/11/30 05:00:30;;;;;;;44.30;26.70;;;6.20;41.10;;;;;;5051710;28;20512;-65
2022/11/30 05:02:58;;;;;;;47.27;26.57;;;6.30;41.10;;;;;;5052654;28;20469;-68
2022/11/30 05:05:25;;;;;;;44.30;25.60;;;6.30;41.10;;;;;;5041673;28;20465;-65
2022/11/30 05:07:56;;;;;;;44.90;25.23;;;6.20;41.10;;;;;;5044278;28;20456;-64
2022/11/30 05:10:24;;;;;;;43.90;25.37;;;6.30;41.10;;;;;;5048730;28;20482;-65
2022/11/30 05:12:51;;;;;;;42.23;24.53;;;6.30;41.00;;;;;;5054999;28;20463;-65
2022/11/30 05:15:18;;;;;;;41.43;24.30;;;6.30;41.00;;;;;;5044555;28;20465;-65
2022/11/30 05:17:45;;;;;;;42.53;24.80;;;6.30;41.00;;;;;;5054219;28;20454;-65
2022/11/30 05:20:13;;;;;;;43.87;25.80;;;6.30;40.90;;;;;;5050004;28;20477;-65
2022/11/30 05:22:40;;;;;;;41.50;24.60;;;6.30;40.90;;;;;;5040980;28;20458;-65
2022/11/30 05:25:08;;;;;;;42.87;24.17;;;6.30;40.90;;;;;;5042156;28;20457;-65
2022/11/30 05:27:35;;;;;;;41.70;24.83;;;6.30;40.90;;;;;;5048867;28;20966;-65
2022/11/30 05:30:02;;;;;;;42.00;25.53;;;6.30;40.90;;;;;;5048536;28;21011;-65
2022/11/30 05:32:29;;;;;;;42.60;25.50;;;6.30;40.90;;;;;;5038677;28;20478;-68
2022/11/30 05:34:56;;;;;;;45.93;25.70;;;6.30;40.90;;;;;;5046104;28;20455;-68
2022/11/30 05:37:24;;;;;;;45.00;25.70;;;6.20;40.70;;;;;;5042431;28;20462;-65
2022/11/30 05:39:51;;;;;;;40.60;22.90;;;6.20;40.70;;;;;;5040396;28;20503;-64
2022/11/30 05:42:17;;;;;;;44.73;28.17;;;6.20;40.70;;;;;;5039518;28;20462;-64
2022/11/30 05:44:44;;;;;;;51.13;28.33;;;6.30;40.80;;;;;;5042532;28;20458;-64
2022/11/30 05:47:11;;;;;;;46.83;28.20;;;6.30;40.70;;;;;;5043903;28;20459;-65
2022/11/30 05:49:38;;;;;;;50.03;27.20;;;6.30;40.70;;;;;;5046209;28;20485;-64
2022/11/30 05:52:05;;;;;;;47.63;26.97;;;6.30;40.60;;;;;;5048991;28;20467;-65
2022/11/30 05:54:33;;;;;;;47.53;27.47;;;6.30;40.70;;;;;;5049066;28;20516;-65
2022/11/30 05:57:00;;;;;;;46.53;27.70;;;6.30;40.80;;;;;;5049209;28;20465;-64
2022/11/30 05:59:27;;;;;;;49.37;27.40;;;6.30;40.80;;;;;;5049533;28;20579;-65
2022/11/30 06:01:54;;;;;;;43.70;25.47;;;6.30;40.60;;;;;;5046388;28;20482;-65
2022/11/30 06:04:21;;;;;;;45.73;26.43;;;6.30;40.60;;;;;;5050453;28;20453;-64
2022/11/30 06:06:48;;;;;;;47.40;26.63;;;6.30;40.70;;;;;;5060780;28;20474;-65
2022/11/30 06:09:15;;;;;;;40.10;25.63;;;6.20;40.60;;;;;;5053789;28;20569;-64
2022/11/30 06:11:43;;;;;;;44.27;25.20;;;6.30;40.60;;;;;;5051603;28;20970;-64
2022/11/30 06:14:10;;;;;;;47.60;26.37;;;6.30;40.60;;;;;;5057916;28;20457;-64
2022/11/30 06:16:38;;;;;;;48.23;27.47;;;6.30;40.60;;;;;;5046598;28;20465;-65
2022/11/30 06:19:05;;;;;;;43.00;25.80;;;6.30;40.40;;;;;;5047784;28;20486;-65
2022/11/30 06:21:31;;;;;;;48.17;25.83;;;6.30;40.40;;;;;;5040187;28;20455;-65
2022/11/30 06:23:58;;;;;;;47.17;28.50;;;6.30;40.30;;;;;;5045789;28;20977;-65
2022/11/30 06:26:25;;;;;;;43.50;25.77;;;6.30;40.20;;;;;;5040436;28;20853;-62
2022/11/30 06:28:53;;;;;;;48.70;27.97;;;6.30;40.40;;;;;;5044935;28;20981;-62
2022/11/30 06:31:20;;;;;;;49.23;26.93;;;6.30;40.40;;;;;;5040787;28;20478;-62
2022/11/30 06:33:47;;;;;;;46.90;26.80;;;6.30;40.40;;;;;;5048485;28;20453;-62
2022/11/30 06:36:13;;;;;;;46.70;26.67;;;6.20;40.30;;;;;;5041442;28;20473;-71
2022/11/30 06:38:40;;;;;;;47.93;28.80;;;6.20;40.40;;;;;;5038988;28;20485;-69
2022/11/30 06:41:09;;;;;;;48.43;27.57;;;6.20;40.30;;;;;;5042318;28;20479;-69
2022/11/30 06:43:36;;;;;;;50.47;28.77;;;6.20;40.40;;;;;;5044072;28;20471;-70
2022/11/30 06:46:06;;;;;;;51.20;28.30;;;6.20;40.30;;;;;;5037223;28;20457;-71
2022/11/30 06:48:33;;;;;;;48.47;27.47;;;6.20;40.40;;;;;;5043007;28;20462;-69
2022/11/30 06:51:00;;;;;;;52.47;26.67;;;6.20;40.50;;;;;;5049092;28;20550;-67
2022/11/30 06:53:27;;;;;;;63.00;35.03;;;6.20;40.50;;;;;;5043309;28;20981;-70
2022/11/30 06:55:54;;;;;;;50.97;29.57;;;6.20;40.40;;;;;;5038012;28;20466;-67
2022/11/30 06:58:21;;;;;;;54.27;27.90;;;6.20;40.40;;;;;;5047702;28;20454;-69
2022/11/30 07:00:48;;;;;;;50.70;27.33;;;6.10;40.30;;;;;;5045778;28;20475;-66
2022/11/30 07:03:16;;;;;;;53.17;28.37;;;6.10;40.30;;;;;;5040342;28;20470;-68
2022/11/30 07:05:45;;;;;;;46.27;24.67;;;6.10;40.40;;;;;;5038859;28;20453;-67
2022/11/30 07:08:11;;;;;;;46.67;25.03;;;6.10;40.40;;;;;;5046756;28;21067;-69
2022/11/30 07:10:42;;;;;;;43.00;23.80;;;6.10;40.40;;;;;;5038868;28;20484;-67
2022/11/30 07:13:12;;;;;;;45.97;25.90;;;6.10;40.40;;;;;;5042677;28;20456;-68
2022/11/30 07:15:39;;;;;;;51.77;26.90;;;6.10;40.40;;;;;;5044805;28;20461;-68
2022/11/30 07:18:06;;;;;;;40.97;24.57;;;6.10;40.30;;;;;;5040503;28;20458;-68
2022/11/30 07:20:35;;;;;;;49.43;26.23;;;6.10;40.40;;;;;;5043792;28;20478;-68
2022/11/30 07:26:05;;;;;;;51.10;27.27;;;6.10;40.40;;;;;;5043257;28;20837;-68
2022/11/30 07:26:06;;;;;;;47.07;26.53;;;6.10;40.40;;;;;;5036687;28;20450;-68
2022/11/30 07:28:35;;;;;;;47.57;26.63;;;6.10;40.30;;;;;;5035333;28;20446;-68
2022/11/30 07:31:02;;;;;;;47.67;27.03;;;6.10;40.30;;;;;;5044726;28;20482;-68
2022/11/30 07:33:30;;;;;;;48.67;29.57;;;6.10;40.40;;;;;;5036360;28;20458;-67
2022/11/30 07:35:58;;;;;;;48.27;25.97;;;6.10;40.10;;;;;;5034946;28;20469;-66
2022/11/30 07:38:25;;;;;;;52.60;25.73;;;6.10;40.10;;;;;;5042125;28;20481;-67
2022/11/30 07:40:52;;;;;;;53.30;28.13;;;6.10;40.30;;;;;;5038686;28;21051;-68
2022/11/30 07:43:18;;;;;;;55.33;25.63;;;6.10;40.40;;;;;;5038412;28;20467;-67
2022/11/30 07:45:52;;;;;;;54.23;27.27;;;6.10;40.40;;;;;;5032590;28;20490;-65
2022/11/30 07:48:19;;;;;;;51.03;25.47;;;6.00;40.50;;;;;;5040991;28;20470;-68
2022/11/30 07:50:45;;;;;;;51.27;26.27;;;6.00;40.50;;;;;;5035687;28;20482;-67
2022/11/30 07:53:14;;;;;;;48.50;24.87;;;6.00;40.50;;;;;;5045668;28;20458;-67
2022/11/30 07:55:41;;;;;;;51.87;25.53;;;6.00;40.50;;;;;;5039904;28;20466;-65
2022/11/30 07:58:08;;;;;;;53.00;27.30;;;6.00;40.50;;;;;;5049502;28;20462;-64
2022/11/30 08:00:35;;;;;;;47.40;25.47;;;6.00;40.60;;;;;;5050118;28;20435;-65
2022/11/30 08:03:02;;;;;;;56.37;26.10;;;6.00;40.70;;;;;;5040176;28;20457;-65
2022/11/30 08:05:29;;;;;;;47.47;25.43;;;6.00;40.60;;;;;;5044164;28;20593;-64
2022/11/30 08:07:56;;;;;;;50.93;25.37;;;6.10;40.60;;;;;;5044279;28;20465;-65
2022/11/30 08:10:24;;;;;;;47.10;25.13;;;6.00;40.60;;;;;;5042922;28;20543;-64
2022/11/30 08:12:51;;;;;;;50.30;25.97;;;6.10;40.70;;;;;;5047585;28;20470;-65
2022/11/30 08:15:18;;;;;;;51.60;26.87;;;6.10;40.60;;;;;;5050400;28;20472;-65
2022/11/30 08:17:45;;;;;;;46.50;24.83;;;6.10;40.60;;;;;;5041895;28;20482;-64
2022/11/30 08:20:12;;;;;;;48.97;26.03;;;6.10;40.50;;;;;;5047430;28;20482;-62
2022/11/30 08:22:39;;;;;;;53.90;27.03;;;6.10;40.50;;;;;;5048961;28;20462;-62
2022/11/30 08:25:08;;;;;;;54.80;27.10;;;6.10;40.60;;;;;;5032737;28;20477;-62
2022/11/30 08:27:36;;;;;;;48.90;25.33;;;6.10;40.60;;;;;;5044400;28;20505;-63
2022/11/30 08:30:03;;;;;;;58.60;30.37;;;6.10;40.40;;;;;;5043707;28;20590;-64
2022/11/30 08:32:31;;;;;;;52.23;24.93;;;6.10;40.50;;;;;;5041841;28;20481;-64
2022/11/30 08:34:58;;;;;;;54.07;25.40;;;6.10;40.40;;;;;;5034582;28;20518;-64
2022/11/30 08:37:25;;;;;;;52.53;27.70;;;6.10;40.40;;;;;;5041896;28;20465;-65
2022/11/30 08:39:51;;;;;;;48.43;26.77;;;6.10;40.50;;;;;;5043314;28;20693;-65
2022/11/30 08:42:18;;;;;;;59.00;28.13;;;6.10;40.30;;;;;;5048725;28;20457;-63
2022/11/30 08:44:46;;;;;;;46.27;24.33;;;6.10;41.20;;;;;;5042436;28;20464;-68
2022/11/30 08:47:13;;;;;;;48.27;25.70;;;6.10;40.40;;;;;;5044804;28;20461;-66
2022/11/30 08:49:40;;;;;;;49.70;26.80;;;6.10;40.00;;;;;;5051241;28;20473;-67
2022/11/30 08:52:07;;;;;;;52.10;28.10;;;6.10;40.20;;;;;;5046998;28;20458;-65
2022/11/30 08:54:33;;;;;;;47.90;24.80;;;6.10;40.40;;;;;;5045319;28;20477;-65
2022/11/30 08:57:00;;;;;;;49.27;27.20;;;6.20;40.40;;;;;;5047156;28;20473;-67
2022/11/30 08:59:27;;;;;;;46.77;25.73;;;6.20;40.40;;;;;;5045347;28;20496;-63
2022/11/30 09:01:55;;;;;;;56.17;26.33;;;6.20;40.40;;;;;;5042426;28;20474;-62
2022/11/30 09:04:22;;;;;;;54.50;30.10;;;6.20;40.40;;;;;;5042390;28;20914;-65
2022/11/30 09:06:49;;;;;;;50.53;26.87;;;6.20;41.10;;;;;;5042509;28;20557;-71
2022/11/30 09:09:18;;;;;;;45.10;26.17;;;6.20;40.50;;;;;;5044877;28;20489;-63
2022/11/30 09:11:45;;;;;;;44.37;25.90;;;6.30;40.50;;;;;;5040753;28;20458;-71
2022/11/30 09:14:12;;;;;;;50.30;25.87;;;6.30;40.30;;;;;;5056820;22;20588;-70
2022/11/30 09:16:39;;;;;;;47.80;23.67;;;6.30;40.10;;;;;;5044248;28;20996;-69
2022/11/30 09:19:07;;;;;;;40.77;21.63;;;6.30;40.20;;;;;;5048313;28;20488;-69
2022/11/30 09:21:34;;;;;;;34.00;20.80;;;6.30;40.20;;;;;;5046266;28;20466;-69
2022/11/30 09:24:01;;;;;;;38.50;19.13;;;6.30;39.00;;;;;;5044662;28;20486;-70
2022/11/30 09:26:28;;;;;;;42.37;20.20;;;6.30;38.80;;;;;;5048115;28;20466;-71
2022/11/30 09:28:54;;;;;;;36.70;20.03;;;6.20;38.70;;;;;;5043925;28;20463;-69
2022/11/30 09:31:23;;;;;;;46.60;23.30;;;6.20;38.80;;;;;;5042977;28;20479;-70
2022/11/30 09:33:51;;;;;;;49.23;25.93;;;6.20;39.10;;;;;;5048120;28;20482;-70
2022/11/30 09:36:21;;;;;;;41.23;23.80;;;6.20;39.40;;;;;;5040275;28;20465;-68
2022/11/30 09:38:49;;;;;;;43.77;25.53;;;6.20;39.50;;;;;;5042811;28;20552;-69
2022/11/30 09:41:40;;;;;;;38.93;24.07;;;6.20;39.60;;;;;;5045589;28;20632;-62
2022/11/30 09:44:14;;;;;;;39.63;21.80;;;6.20;39.70;;;;;;5050313;28;20560;-61
2022/11/30 09:46:48;;;;;;;45.03;23.27;;;6.20;39.80;;;;;;5044304;28;20466;-65
2022/11/30 09:49:19;;;;;;;35.20;20.70;;;6.20;39.90;;;;;;5046855;28;20458;-69
2022/11/30 09:51:48;;;;;;;39.00;20.77;;;6.20;39.60;;;;;;5045848;28;20469;-71
2022/11/30 09:54:17;;;;;;;44.80;21.47;;;6.20;39.70;;;;;;5043400;28;20486;-70
2022/11/30 09:56:46;;;;;;;38.00;22.47;;;6.20;39.70;;;;;;5039760;28;20533;-70
2022/11/30 09:59:19;;;;;;;38.30;20.83;;;6.20;39.80;;;;;;5046251;28;20477;-69
2022/11/30 10:01:47;;;;;;;37.73;20.13;;;6.20;39.90;;;;;;5045426;28;20856;-68
2022/11/30 10:04:22;;;;;;;33.67;18.80;;;6.20;39.90;;;;;;5046686;28;20490;-68
2022/11/30 10:07:01;;;;;;;35.97;20.30;;;6.30;39.80;;;;;;5045469;28;20458;-70
2022/11/30 10:09:41;;;;;;;33.10;18.00;;;6.30;39.50;;;;;;5041785;28;20461;-68
2022/11/30 10:12:14;;;;;;;32.73;18.67;;;6.30;39.40;;;;;;5043604;28;20461;-70
2022/11/30 10:15:11;;;;;;;35.23;18.70;;;6.30;39.40;;;;;;5046258;28;20476;-68
2022/11/30 10:17:54;;;;;;;30.93;18.90;;;6.20;39.40;;;;;;5038556;28;20856;-68
2022/11/30 10:20:35;;;;;;;30.17;17.63;;;6.30;39.40;;;;;;5046937;28;20478;-67
2022/11/30 10:23:29;;;;;;;32.77;18.07;;;6.20;39.60;;;;;;5041310;28;20481;-69
2022/11/30 10:25:58;;;;;;;35.17;18.13;;;6.20;39.40;;;;;;5038650;28;20462;-67
2022/11/30 10:28:37;;;;;;;29.60;19.33;;;6.20;39.20;;;;;;5038235;28;21423;-66
2022/11/30 10:31:05;;;;;;;28.00;16.03;;;6.20;39.50;;;;;;5046312;28;20570;-63
2022/11/30 10:33:39;;;;;;;35.57;17.80;;;6.10;39.80;;;;;;5040962;28;20484;-67
2022/11/30 10:36:12;;;;;;;31.07;17.77;;;6.10;39.50;;;;;;5045267;28;20492;-67
2022/11/30 10:38:44;;;;;;;26.17;15.13;;;6.10;39.30;;;;;;5038884;28;20471;-67
2022/11/30 10:41:15;;;;;;;25.90;17.03;;;6.10;39.40;;;;;;5039225;28;20482;-67
2022/11/30 10:43:58;;;;;;;29.37;15.00;;;6.10;39.30;;;;;;5044909;28;20482;-68
2022/11/30 10:46:28;;;;;;;32.17;16.47;;;6.10;39.40;;;;;;5041344;28;20969;-67
2022/11/30 10:49:01;;;;;;;26.87;15.00;;;6.00;39.50;;;;;;5043074;28;20463;-66
2022/11/30 10:51:30;;;;;;;30.17;17.00;;;6.00;39.50;;;;;;5046635;28;20805;-66
2022/11/30 10:53:59;;;;;;;30.13;15.50;;;6.00;39.60;;;;;;5040093;28;20535;-66
2022/11/30 10:56:26;;;;;;;26.00;14.97;;;6.00;39.60;;;;;;5044569;28;20881;-68
2022/11/30 10:58:58;;;;;;;29.40;13.23;;;6.00;39.60;;;;;;5040516;28;20454;-61
2022/11/30 11:01:36;;;;;;;20.90;12.10;;;6.00;39.60;;;;;;5037782;28;21036;-62
2022/11/30 11:04:15;;;;;;;21.83;12.67;;;6.00;39.20;;;;;;5040681;28;20477;-62
2022/11/30 11:06:45;;;;;;;25.03;13.70;;;6.00;39.00;;;;;;5042936;28;20970;-62
2022/11/30 11:09:36;;;;;;;22.40;12.97;;;6.00;39.30;;;;;;5040746;28;20466;-61
2022/11/30 11:12:06;;;;;;;22.27;12.37;;;6.00;39.30;;;;;;5042730;28;20458;-66
2022/11/30 11:14:33;;;;;;;22.20;13.40;;;6.00;39.00;;;;;;5035851;28;20462;-68
2022/11/30 11:17:03;;;;;;;21.80;13.83;;;6.00;39.00;;;;;;5040964;28;20852;-71
2022/11/30 11:19:36;;;;;;;20.43;11.90;;;6.00;39.10;;;;;;5044800;28;20454;-69
2022/11/30 11:22:05;;;;;;;21.77;12.47;;;6.00;38.90;;;;;;5042339;28;20462;-69
2022/11/30 11:24:33;;;;;;;28.30;14.27;;;6.00;39.00;;;;;;5042220;28;20463;-69
2022/11/30 11:27:01;;;;;;;21.47;13.13;;;6.00;39.20;;;;;;5044873;28;20476;-67
2022/11/30 11:29:31;;;;;;;22.40;14.67;;;6.00;38.90;;;;;;5042896;28;20462;-72
2022/11/30 11:32:17;;;;;;;25.33;13.80;;;6.10;39.60;;;;;;5045554;28;20478;-69
2022/11/30 11:34:45;;;;;;;20.50;12.20;;;6.10;39.10;;;;;;5040451;28;20511;-70
2022/11/30 11:37:18;;;;;;;23.10;13.33;;;6.10;38.60;;;;;;5039462;28;20470;-67
2022/11/30 11:39:56;;;;;;;17.93;11.50;;;6.10;39.00;;;;;;5046708;28;20470;-67
2022/11/30 11:42:25;;;;;;;17.37;10.50;;;6.00;38.70;;;;;;5044480;28;22334;-68
2022/11/30 11:44:55;;;;;;;18.53;12.13;;;6.10;38.40;;;;;;5046465;28;20833;-68
2022/11/30 11:47:26;;;;;;;23.63;12.10;;;6.10;38.30;;;;;;5036302;28;21080;-68
2022/11/30 11:50:05;;;;;;;20.87;12.97;;;6.10;38.30;;;;;;5045160;28;20469;-67
2022/11/30 11:52:32;;;;;;;20.17;12.10;;;6.10;38.50;;;;;;5042442;28;20477;-67
2022/11/30 11:55:02;;;;;;;23.60;12.10;;;6.10;38.60;;;;;;5043110;28;20453;-66
2022/11/30 11:57:46;;;;;;;17.57;10.63;;;6.10;38.40;;;;;;5042102;28;20498;-68
2022/11/30 12:00:17;;;;;;;22.00;13.67;;;6.10;38.40;;;;;;5040909;28;20474;-68
2022/11/30 12:02:53;;;;;;;20.13;13.00;;;6.10;38.30;;;;;;5043849;28;20509;-68
2022/11/30 12:05:26;;;;;;;19.83;11.50;;;6.00;38.50;;;;;;5042134;28;20463;-66
2022/11/30 12:08:05;;;;;;;21.40;12.47;;;6.00;38.50;;;;;;5045007;28;20552;-68
2022/11/30 12:10:36;;;;;;;18.63;10.83;;;6.00;38.70;;;;;;5041464;28;20993;-67
2022/11/30 12:13:12;;;;;;;20.90;12.50;;;6.10;38.80;;;;;;5044154;28;20486;-67
2022/11/30 12:15:56;;;;;;;16.13;10.13;;;6.10;38.80;;;;;;5036974;28;20465;-66
2022/11/30 12:18:29;;;;;;;20.10;11.57;;;6.00;38.70;;;;;;5046620;28;20489;-65
2022/11/30 12:21:00;;;;;;;20.53;12.30;;;6.10;38.90;;;;;;5043969;28;20477;-70
2022/11/30 12:23:48;;;;;;;21.47;12.63;;;6.10;38.80;;;;;;5045969;28;20521;-69
2022/11/30 12:26:25;;;;;;;24.03;12.67;;;6.00;38.80;;;;;;5043155;28;20549;-69
2022/11/30 12:29:21;;;;;;;19.20;12.63;;;6.00;38.80;;;;;;5044881;28;20462;-69
2022/11/30 12:32:01;;;;;;;20.90;12.27;;;6.00;38.90;;;;;;5037492;28;20478;-69
2022/11/30 12:34:46;;;;;;;21.03;13.00;;;6.10;39.20;;;;;;5041421;28;20461;-69
2022/11/30 12:37:19;;;;;;;25.93;14.40;;;6.00;39.20;;;;;;5040155;28;20492;-70
2022/11/30 12:39:56;;;;;;;23.70;14.60;;;6.10;39.30;;;;;;5043328;28;20466;-68
2022/11/30 12:42:31;;;;;;;20.23;12.63;;;6.10;39.30;;;;;;5047308;28;20485;-66
2022/11/30 12:45:10;;;;;;;23.03;13.63;;;6.10;39.20;;;;;;5053106;28;20453;-66
2022/11/30 12:47:54;;;;;;;26.30;15.93;;;6.10;39.20;;;;;;5042660;28;22640;-66